sensor_id;sensor_type;location;lat;lon;timestamp;temperature;humidity
5364;DHT22;2705;41.410;2.160;2023-04-23T18:41:54;20.00;99.90
5364;DHT22;2705;41.410;2.160;2023-04-23T18:44:27;21.30;99.90
5364;DHT22;2705;41.410;2.160;2023-04-23T18:46:59;21.00;99.90
5364;DHT22;2705;41.410;2.160;2023-04-23T18:49:38;20.80;99.90
5364;DHT22;2705;41.410;2.160;2023-04-23T18:52:11;20.80;99.90
5364;DHT22;2705;41.410;2.160;2023-04-23T18:54:41;20.80;99.90
5364;DHT22;2705;41.410;2.160;2023-04-23T18:57:10;20.60;99.90
5364;DHT22;2705;41.410;2.160;2023-04-23T18:59:41;20.40;99.90
5364;DHT22;2705;41.410;2.160;2023-04-23T19:02:11;20.20;99.90
5364;DHT22;2705;41.410;2.160;2023-04-23T19:04:54;20.20;99.90
5364;DHT22;2705;41.410;2.160;2023-04-23T19:07:24;20.10;99.90
5364;DHT22;2705;41.410;2.160;2023-04-23T19:09:53;20.00;99.90
5364;DHT22;2705;41.410;2.160;2023-04-23T19:12:23;20.10;99.90
5364;DHT22;2705;41.410;2.160;2023-04-23T19:14:53;20.00;99.90
5364;DHT22;2705;41.410;2.160;2023-04-23T19:17:23;19.80;99.90
5364;DHT22;2705;41.410;2.160;2023-04-23T19:19:53;19.80;99.90
5364;DHT22;2705;41.410;2.160;2023-04-23T19:22:22;19.80;99.90
5364;DHT22;2705;41.410;2.160;2023-04-23T19:24:52;19.80;99.90
5364;DHT22;2705;41.410;2.160;2023-04-23T19:27:21;19.60;99.90
5364;DHT22;2705;41.410;2.160;2023-04-23T19:29:50;19.70;99.90
5364;DHT22;2705;41.410;2.160;2023-04-23T19:32:22;19.60;99.90
5364;DHT22;2705;41.410;2.160;2023-04-23T19:34:51;19.50;99.90
5364;DHT22;2705;41.410;2.160;2023-04-23T19:37:23;19.40;99.90
5364;DHT22;2705;41.410;2.160;2023-04-23T19:39:53;19.20;99.90
5364;DHT22;2705;41.410;2.160;2023-04-23T19:42:22;19.10;99.90
5364;DHT22;2705;41.410;2.160;2023-04-23T19:44:52;19.00;99.90
5364;DHT22;2705;41.410;2.160;2023-04-23T19:47:22;18.80;99.90
5364;DHT22;2705;41.410;2.160;2023-04-23T19:49:52;18.70;99.90
5364;DHT22;2705;41.410;2.160;2023-04-23T19:52:24;18.70;99.90
5364;DHT22;2705;41.410;2.160;2023-04-23T19:54:53;18.50;99.90
5364;DHT22;2705;41.410;2.160;2023-04-23T19:57:26;18.10;99.90
5364;DHT22;2705;41.410;2.160;2023-04-23T19:59:56;18.20;99.90
5364;DHT22;2705;41.410;2.160;2023-04-23T20:02:27;18.10;99.90
5364;DHT22;2705;41.410;2.160;2023-04-23T20:04:56;18.10;99.90
5364;DHT22;2705;41.410;2.160;2023-04-23T20:07:26;18.10;99.90
5364;DHT22;2705;41.410;2.160;2023-04-23T20:09:56;18.20;99.90
5364;DHT22;2705;41.410;2.160;2023-04-23T20:12:25;18.00;99.90
5364;DHT22;2705;41.410;2.160;2023-04-23T20:14:56;18.00;99.90
5364;DHT22;2705;41.410;2.160;2023-04-23T20:17:27;17.90;99.90
5364;DHT22;2705;41.410;2.160;2023-04-23T20:19:57;17.80;99.90
5364;DHT22;2705;41.410;2.160;2023-04-23T20:22:28;17.70;99.90
5364;DHT22;2705;41.410;2.160;2023-04-23T20:24:57;17.60;99.90
5364;DHT22;2705;41.410;2.160;2023-04-23T20:27:29;17.40;99.90
5364;DHT22;2705;41.410;2.160;2023-04-23T20:29:58;17.30;99.90
5364;DHT22;2705;41.410;2.160;2023-04-23T20:32:29;17.20;99.90
5364;DHT22;2705;41.410;2.160;2023-04-23T20:34:59;17.20;99.90
5364;DHT22;2705;41.410;2.160;2023-04-23T20:37:29;17.40;99.90
5364;DHT22;2705;41.410;2.160;2023-04-23T20:39:58;17.20;99.90
5364;DHT22;2705;41.410;2.160;2023-04-23T20:42:27;17.40;99.90
5364;DHT22;2705;41.410;2.160;2023-04-23T20:44:57;17.20;99.90
5364;DHT22;2705;41.410;2.160;2023-04-23T20:47:27;17.30;99.90
5364;DHT22;2705;41.410;2.160;2023-04-23T20:49:57;17.20;99.90
5364;DHT22;2705;41.410;2.160;2023-04-23T20:52:27;17.30;99.90
5364;DHT22;2705;41.410;2.160;2023-04-23T20:54:57;17.30;99.90
5364;DHT22;2705;41.410;2.160;2023-04-23T20:57:26;17.40;99.90
5364;DHT22;2705;41.410;2.160;2023-04-23T20:59:56;17.30;99.90
5364;DHT22;2705;41.410;2.160;2023-04-23T21:02:25;17.30;99.90
5364;DHT22;2705;41.410;2.160;2023-04-23T21:04:54;17.20;99.90
5364;DHT22;2705;41.410;2.160;2023-04-23T21:07:25;17.50;99.90
5364;DHT22;2705;41.410;2.160;2023-04-23T21:09:54;17.50;99.90
5364;DHT22;2705;41.410;2.160;2023-04-23T21:12:23;17.40;99.90
5364;DHT22;2705;41.410;2.160;2023-04-23T21:14:53;17.30;99.90
5364;DHT22;2705;41.410;2.160;2023-04-23T21:17:23;17.20;99.90
5364;DHT22;2705;41.410;2.160;2023-04-23T21:19:52;17.20;99.90
5364;DHT22;2705;41.410;2.160;2023-04-23T21:22:21;17.20;99.90
5364;DHT22;2705;41.410;2.160;2023-04-23T21:24:51;17.20;99.90
5364;DHT22;2705;41.410;2.160;2023-04-23T21:27:21;17.40;99.90
5364;DHT22;2705;41.410;2.160;2023-04-23T21:29:50;17.30;99.90
5364;DHT22;2705;41.410;2.160;2023-04-23T21:32:20;17.40;99.90
5364;DHT22;2705;41.410;2.160;2023-04-23T21:34:49;17.20;99.90
5364;DHT22;2705;41.410;2.160;2023-04-23T21:37:18;17.30;99.90
5364;DHT22;2705;41.410;2.160;2023-04-23T21:39:47;17.40;99.90
5364;DHT22;2705;41.410;2.160;2023-04-23T21:42:18;17.50;99.90
5364;DHT22;2705;41.410;2.160;2023-04-23T21:44:47;17.20;99.90
5364;DHT22;2705;41.410;2.160;2023-04-23T21:47:16;17.20;99.90
5364;DHT22;2705;41.410;2.160;2023-04-23T21:49:45;17.30;99.90
5364;DHT22;2705;41.410;2.160;2023-04-23T21:52:15;17.00;99.90
5364;DHT22;2705;41.410;2.160;2023-04-23T21:54:44;17.00;99.90
5364;DHT22;2705;41.410;2.160;2023-04-23T21:57:14;17.10;99.90
5364;DHT22;2705;41.410;2.160;2023-04-23T21:59:45;16.90;99.90
5364;DHT22;2705;41.410;2.160;2023-04-23T22:02:18;16.80;99.90
5364;DHT22;2705;41.410;2.160;2023-04-23T22:04:47;16.90;99.90
5364;DHT22;2705;41.410;2.160;2023-04-23T22:07:16;16.80;99.90
5364;DHT22;2705;41.410;2.160;2023-04-23T22:09:46;16.80;99.90
5364;DHT22;2705;41.410;2.160;2023-04-23T22:12:15;16.80;99.90
5364;DHT22;2705;41.410;2.160;2023-04-23T22:14:45;17.00;99.90
5364;DHT22;2705;41.410;2.160;2023-04-23T22:17:15;16.90;99.90
5364;DHT22;2705;41.410;2.160;2023-04-23T22:19:45;17.00;99.90
5364;DHT22;2705;41.410;2.160;2023-04-23T22:22:14;17.10;99.90
5364;DHT22;2705;41.410;2.160;2023-04-23T22:24:43;16.90;99.90
5364;DHT22;2705;41.410;2.160;2023-04-23T22:27:12;16.80;99.90
5364;DHT22;2705;41.410;2.160;2023-04-23T22:29:41;16.70;99.90
5364;DHT22;2705;41.410;2.160;2023-04-23T22:32:12;16.80;99.90
5364;DHT22;2705;41.410;2.160;2023-04-23T22:34:41;16.70;99.90
5364;DHT22;2705;41.410;2.160;2023-04-23T22:37:10;16.60;99.90
5364;DHT22;2705;41.410;2.160;2023-04-23T22:39:39;16.70;99.90
5364;DHT22;2705;41.410;2.160;2023-04-23T22:42:09;16.70;99.90
5364;DHT22;2705;41.410;2.160;2023-04-23T22:44:38;16.70;99.90
5364;DHT22;2705;41.410;2.160;2023-04-23T22:47:08;16.50;99.90
5364;DHT22;2705;41.410;2.160;2023-04-23T22:49:40;16.60;99.90
5364;DHT22;2705;41.410;2.160;2023-04-23T22:52:09;16.50;99.90
5364;DHT22;2705;41.410;2.160;2023-04-23T22:54:40;16.60;99.90
5364;DHT22;2705;41.410;2.160;2023-04-23T22:57:10;16.70;99.90
5364;DHT22;2705;41.410;2.160;2023-04-23T22:59:39;16.60;99.90
5364;DHT22;2705;41.410;2.160;2023-04-23T23:02:09;16.60;99.90
5364;DHT22;2705;41.410;2.160;2023-04-23T23:04:39;16.60;99.90
5364;DHT22;2705;41.410;2.160;2023-04-23T23:07:09;16.70;99.90
5364;DHT22;2705;41.410;2.160;2023-04-23T23:09:38;16.60;99.90
5364;DHT22;2705;41.410;2.160;2023-04-23T23:12:07;16.40;99.90
5364;DHT22;2705;41.410;2.160;2023-04-23T23:14:37;16.40;99.90
5364;DHT22;2705;41.410;2.160;2023-04-23T23:17:06;16.40;99.90
5364;DHT22;2705;41.410;2.160;2023-04-23T23:19:35;16.50;99.90
5364;DHT22;2705;41.410;2.160;2023-04-23T23:22:05;16.70;99.90
5364;DHT22;2705;41.410;2.160;2023-04-23T23:24:35;16.60;99.90
5364;DHT22;2705;41.410;2.160;2023-04-23T23:27:04;16.40;99.90
5364;DHT22;2705;41.410;2.160;2023-04-23T23:29:33;16.30;99.90
5364;DHT22;2705;41.410;2.160;2023-04-23T23:32:02;16.40;99.90
5364;DHT22;2705;41.410;2.160;2023-04-23T23:34:31;16.60;99.90
5364;DHT22;2705;41.410;2.160;2023-04-23T23:37:01;16.80;99.90
5364;DHT22;2705;41.410;2.160;2023-04-23T23:39:31;16.80;99.90
5364;DHT22;2705;41.410;2.160;2023-04-23T23:42:01;16.70;99.90
5364;DHT22;2705;41.410;2.160;2023-04-23T23:44:30;16.60;99.90
5364;DHT22;2705;41.410;2.160;2023-04-23T23:46:59;16.60;99.90
5364;DHT22;2705;41.410;2.160;2023-04-23T23:49:28;16.40;99.90
5364;DHT22;2705;41.410;2.160;2023-04-23T23:51:57;16.30;99.90
5364;DHT22;2705;41.410;2.160;2023-04-23T23:54:27;16.20;99.90
5364;DHT22;2705;41.410;2.160;2023-04-23T23:56:58;16.30;99.90
5364;DHT22;2705;41.410;2.160;2023-04-23T23:59:28;16.30;99.90
